createdAt,value
2023-03-16T00:02:10.537Z,2.30
2023-03-16T00:04:40.323Z,2.75
2023-03-16T00:07:09.658Z,1.70
2023-03-16T00:09:40.974Z,2.55
2023-03-16T00:12:15.669Z,2.50
2023-03-16T00:14:44.567Z,2.08
2023-03-16T00:17:18.732Z,2.10
2023-03-16T00:19:54.906Z,3.28
2023-03-16T00:22:24.563Z,2.58
2023-03-16T00:24:52.659Z,1.77
2023-03-16T00:27:22.629Z,2.05
2023-03-16T00:29:56.014Z,2.35
2023-03-16T00:32:28.783Z,1.95
2023-03-16T00:34:56.122Z,2.33
2023-03-16T00:37:23.973Z,2.40
2023-03-16T00:39:51.634Z,2.10
2023-03-16T00:42:19.913Z,2.33
2023-03-16T00:44:46.910Z,1.70
2023-03-16T00:47:17.050Z,1.90
2023-03-16T00:49:44.672Z,2.05
2023-03-16T00:52:15.997Z,1.58
2023-03-16T00:54:44.372Z,1.50
2023-03-16T00:57:18.716Z,1.40
2023-03-16T00:59:46.621Z,2.28
2023-03-16T01:02:14.715Z,1.73
2023-03-16T01:04:41.983Z,2.10
2023-03-16T01:07:12.321Z,1.73
2023-03-16T01:09:42.546Z,1.75
2023-03-16T01:12:14.973Z,2.15
2023-03-16T01:14:42.782Z,2.25
2023-03-16T01:17:10.202Z,2.15
2023-03-16T01:19:37.890Z,2.10
2023-03-16T01:22:09.840Z,2.45
2023-03-16T01:24:38.187Z,2.22
2023-03-16T01:27:05.866Z,1.90
2023-03-16T01:29:33.211Z,1.20
2023-03-16T01:32:01.293Z,2.33
2023-03-16T01:34:28.568Z,2.45
2023-03-16T01:36:55.731Z,3.17
2023-03-16T01:39:22.607Z,1.48
2023-03-16T01:41:49.539Z,2.58
2023-03-16T01:44:28.180Z,2.38
2023-03-16T01:46:54.956Z,2.13
2023-03-16T01:49:29.684Z,2.13
2023-03-16T01:52:07.217Z,1.27
2023-03-16T01:54:42.640Z,1.95
2023-03-16T01:57:12.080Z,2.25
2023-03-16T01:59:44.953Z,2.55
2023-03-16T02:02:13.806Z,1.98
2023-03-16T02:05:08.017Z,3.05
2023-03-16T02:07:40.135Z,2.05
2023-03-16T02:10:08.765Z,2.60
2023-03-16T02:12:36.257Z,1.73
2023-03-16T02:15:03.315Z,2.70
2023-03-16T02:17:31.842Z,2.83
2023-03-16T02:20:01.650Z,2.00
2023-03-16T02:22:28.694Z,3.20
2023-03-16T02:24:55.513Z,2.60
2023-03-16T02:27:37.444Z,2.63
2023-03-16T02:30:06.748Z,1.45
2023-03-16T02:32:34.650Z,2.67
2023-03-16T02:35:02.584Z,2.35
2023-03-16T02:37:29.971Z,2.00
2023-03-16T02:39:56.749Z,2.22
2023-03-16T02:42:26.612Z,2.55
2023-03-16T02:44:58.642Z,1.88
2023-03-16T02:47:41.968Z,2.40
2023-03-16T02:50:12.401Z,2.08
2023-03-16T02:52:39.975Z,2.35
2023-03-16T02:55:07.986Z,2.03
2023-03-16T02:57:35.189Z,2.75
2023-03-16T03:00:02.058Z,2.92
2023-03-16T03:02:28.858Z,2.45
2023-03-16T03:04:55.688Z,2.60
2023-03-16T03:07:22.476Z,1.80
2023-03-16T03:09:49.322Z,2.65
2023-03-16T03:12:16.133Z,2.00
2023-03-16T03:14:44.249Z,2.42
2023-03-16T03:17:13.226Z,1.98
2023-03-16T03:19:40.043Z,2.83
2023-03-16T03:22:06.916Z,2.35
2023-03-16T03:24:34.700Z,1.75
2023-03-16T03:27:05.712Z,1.92
2023-03-16T03:29:36.109Z,2.40
2023-03-16T03:32:04.642Z,2.97
2023-03-16T03:34:32.031Z,2.35
2023-03-16T03:36:59.183Z,2.97
2023-03-16T03:39:26.221Z,4.05
2023-03-16T03:41:54.615Z,2.42
2023-03-16T03:44:22.529Z,2.60
2023-03-16T03:46:49.985Z,2.55
2023-03-16T03:49:17.085Z,2.40
2023-03-16T03:51:44.503Z,2.58
2023-03-16T03:54:11.380Z,2.28
2023-03-16T03:56:38.325Z,2.30
2023-03-16T03:59:05.118Z,1.65
2023-03-16T04:01:31.975Z,2.45
2023-03-16T04:03:58.756Z,2.95
2023-03-16T04:06:25.577Z,2.78
2023-03-16T04:08:54.286Z,2.72
2023-03-16T04:11:21.831Z,2.53
2023-03-16T04:13:50.985Z,2.38
2023-03-16T04:16:17.939Z,2.10
2023-03-16T04:18:46.070Z,2.58
2023-03-16T04:21:17.469Z,2.50
2023-03-16T04:23:44.716Z,1.90
2023-03-16T04:26:11.633Z,2.67
2023-03-16T04:28:38.929Z,2.95
2023-03-16T04:31:08.071Z,2.10
2023-03-16T04:33:36.304Z,2.60
2023-03-16T04:36:06.278Z,2.78
2023-03-16T04:38:34.270Z,2.72
2023-03-16T04:41:02.745Z,2.28
2023-03-16T04:43:30.253Z,1.98
2023-03-16T04:45:57.013Z,2.83
2023-03-16T04:48:25.679Z,2.65
2023-03-16T04:50:52.396Z,2.10
2023-03-16T04:53:19.176Z,2.65
2023-03-16T04:55:47.084Z,2.65
2023-03-16T04:58:13.901Z,2.65
2023-03-16T05:00:41.550Z,2.63
2023-03-16T05:03:12.800Z,2.95
2023-03-16T05:05:40.040Z,3.38
2023-03-16T05:08:07.348Z,2.97
2023-03-16T05:10:34.610Z,2.10
2023-03-16T05:13:01.417Z,2.65
2023-03-16T05:15:28.302Z,2.38
2023-03-16T05:17:58.269Z,2.92
2023-03-16T05:20:25.538Z,3.22
2023-03-16T05:22:52.448Z,3.35
2023-03-16T05:25:20.652Z,2.80
2023-03-16T05:27:50.488Z,3.03
2023-03-16T05:30:18.461Z,2.72
2023-03-16T05:32:45.655Z,2.75
2023-03-16T05:35:13.675Z,2.85
2023-03-16T05:37:43.886Z,3.83
2023-03-16T05:40:19.454Z,2.72
2023-03-16T05:42:48.130Z,3.13
2023-03-16T05:45:16.807Z,3.15
2023-03-16T05:47:44.170Z,2.83
2023-03-16T05:50:12.994Z,3.08
2023-03-16T05:52:40.101Z,2.60
2023-03-16T05:55:09.472Z,2.90
2023-03-16T05:57:36.451Z,2.70
2023-03-16T06:00:16.572Z,2.83
2023-03-16T06:02:46.905Z,2.83
2023-03-16T06:05:14.123Z,2.63
2023-03-16T06:07:41.761Z,2.92
2023-03-16T06:10:09.724Z,3.30
2023-03-16T06:12:36.592Z,2.67
2023-03-16T06:15:07.266Z,2.50
2023-03-16T06:17:35.532Z,2.92
2023-03-16T06:20:03.574Z,2.63
2023-03-16T06:22:30.712Z,2.88
2023-03-16T06:24:57.525Z,3.33
2023-03-16T06:27:26.485Z,3.90
2023-03-16T06:29:53.399Z,3.38
2023-03-16T06:32:20.328Z,4.22
2023-03-16T06:34:47.769Z,3.40
2023-03-16T06:37:14.738Z,4.13
2023-03-16T06:39:41.532Z,3.72
2023-03-16T06:42:08.416Z,3.40
2023-03-16T06:44:35.181Z,2.90
2023-03-16T06:47:02.053Z,3.05
2023-03-16T06:49:28.988Z,2.40
2023-03-16T06:51:56.588Z,3.03
2023-03-16T06:54:23.313Z,3.00
2023-03-16T06:56:50.151Z,3.22
2023-03-16T06:59:16.921Z,2.53
2023-03-16T07:01:44.941Z,2.67
2023-03-16T07:04:12.674Z,3.15
2023-03-16T07:06:39.646Z,2.88
2023-03-16T07:09:06.426Z,2.80
2023-03-16T07:11:33.348Z,3.33
2023-03-16T07:14:00.231Z,3.78
2023-03-16T07:16:27.356Z,2.58
2023-03-16T07:18:54.465Z,2.90
2023-03-16T07:21:21.705Z,2.83
2023-03-16T07:23:48.707Z,2.72
2023-03-16T07:26:15.533Z,2.63
2023-03-16T07:28:42.453Z,2.80
2023-03-16T07:31:09.477Z,3.75
2023-03-16T07:33:36.567Z,2.40
2023-03-16T07:36:04.534Z,3.40
2023-03-16T07:38:32.676Z,2.55
2023-03-16T07:41:02.193Z,2.38
2023-03-16T07:43:29.437Z,2.30
2023-03-16T07:45:56.287Z,2.80
2023-03-16T07:48:23.302Z,2.67
2023-03-16T07:50:50.531Z,2.40
2023-03-16T07:53:17.868Z,2.78
2023-03-16T07:55:45.012Z,2.30
2023-03-16T07:58:12.565Z,2.95
2023-03-16T08:00:40.094Z,2.20
2023-03-16T08:03:07.192Z,2.55
2023-03-16T08:05:34.075Z,2.72
2023-03-16T08:08:01.774Z,3.20
2023-03-16T08:10:29.472Z,3.08
2023-03-16T08:12:56.515Z,2.42
2023-03-16T08:15:24.973Z,3.22
2023-03-16T08:17:52.527Z,3.13
2023-03-16T08:20:19.771Z,1.98
2023-03-16T08:22:46.888Z,1.73
2023-03-16T08:25:14.684Z,2.08
2023-03-16T08:27:42.779Z,2.55
2023-03-16T08:30:11.601Z,2.03
2023-03-16T08:32:42.416Z,1.80
2023-03-16T08:35:13.474Z,2.08
2023-03-16T08:37:41.496Z,2.10
2023-03-16T08:40:10.866Z,2.30
2023-03-16T08:42:41.574Z,2.50
2023-03-16T08:45:14.438Z,2.00
2023-03-16T08:47:41.431Z,2.50
2023-03-16T08:50:09.913Z,2.53
2023-03-16T08:52:37.274Z,2.42
2023-03-16T08:55:05.737Z,2.28
2023-03-16T08:57:33.994Z,2.35
2023-03-16T09:00:01.408Z,2.30
2023-03-16T09:02:28.338Z,3.00
2023-03-16T09:04:56.194Z,2.17
2023-03-16T09:07:23.293Z,2.15
2023-03-16T09:09:50.808Z,1.75
2023-03-16T09:12:17.875Z,1.95
2023-03-16T09:14:45.963Z,1.88
2023-03-16T09:17:12.905Z,2.08
2023-03-16T09:19:51.178Z,1.95
2023-03-16T09:22:19.864Z,1.98
2023-03-16T09:24:48.430Z,2.05
2023-03-16T09:27:16.189Z,3.55
2023-03-16T09:29:43.546Z,2.38
2023-03-16T09:32:11.096Z,3.00
2023-03-16T09:34:38.004Z,2.08
2023-03-16T09:37:05.252Z,3.15
2023-03-16T09:39:32.084Z,1.98
2023-03-16T09:42:18.255Z,2.05
2023-03-16T09:45:13.425Z,2.03
2023-03-16T09:47:41.861Z,2.55
2023-03-16T09:50:16.615Z,1.88
2023-03-16T09:53:09.073Z,2.13
2023-03-16T09:55:38.908Z,2.25
2023-03-16T09:58:20.376Z,2.03
2023-03-16T10:01:05.880Z,2.33
2023-03-16T10:03:59.102Z,1.67
2023-03-16T10:06:26.830Z,1.98
2023-03-16T10:09:00.123Z,2.10
2023-03-16T10:11:33.164Z,1.98
2023-03-16T10:14:41.062Z,2.30
2023-03-16T10:17:13.617Z,3.00
2023-03-16T10:19:58.052Z,3.60
2023-03-16T10:22:26.615Z,2.38
2023-03-16T10:25:24.035Z,1.95
2023-03-16T10:27:51.799Z,1.60
2023-03-16T10:30:33.928Z,1.77
2023-03-16T10:33:13.623Z,2.03
2023-03-16T10:35:49.661Z,1.35
2023-03-16T10:38:49.439Z,1.92
2023-03-16T10:41:21.424Z,1.52
2023-03-16T10:43:58.633Z,1.55
2023-03-16T10:46:27.777Z,1.90
2023-03-16T10:49:00.821Z,1.88
2023-03-16T10:51:46.630Z,2.13
2023-03-16T10:54:19.770Z,1.50
2023-03-16T10:56:46.502Z,1.45
2023-03-16T10:59:34.498Z,1.50
2023-03-16T11:02:17.245Z,1.88
2023-03-16T11:04:44.194Z,1.20
2023-03-16T11:07:20.736Z,1.75
2023-03-16T11:09:48.609Z,1.50
2023-03-16T11:12:21.584Z,1.70
2023-03-16T11:14:49.142Z,1.38
2023-03-16T11:17:36.577Z,1.33
2023-03-16T11:20:17.531Z,2.40
2023-03-16T11:22:47.129Z,1.40
2023-03-16T11:25:48.053Z,1.50
2023-03-16T11:28:35.508Z,1.25
2023-03-16T11:31:27.664Z,1.10
2023-03-16T11:33:57.469Z,1.20
2023-03-16T11:36:44.429Z,1.17
2023-03-16T11:39:43.505Z,1.40
2023-03-16T11:42:47.035Z,1.92
2023-03-16T11:45:32.632Z,1.98
2023-03-16T11:48:17.430Z,1.52
2023-03-16T11:50:50.066Z,1.50
2023-03-16T11:53:41.224Z,1.77
2023-03-16T11:56:26.051Z,2.00
2023-03-16T11:59:08.019Z,2.60
2023-03-16T12:02:07.291Z,1.00
2023-03-16T12:04:42.866Z,1.73
2023-03-16T12:07:20.440Z,1.13
2023-03-16T12:09:59.851Z,1.83
2023-03-16T12:12:35.516Z,1.30
2023-03-16T12:15:38.465Z,1.52
2023-03-16T12:18:17.470Z,1.63
2023-03-16T12:20:50.807Z,1.20
2023-03-16T12:23:43.370Z,1.23
2023-03-16T12:26:12.436Z,1.48
2023-03-16T12:28:42.113Z,1.52
2023-03-16T12:31:47.492Z,1.70
2023-03-16T12:35:02.208Z,1.30
2023-03-16T12:37:36.104Z,1.60
2023-03-16T12:40:09.154Z,1.52
2023-03-16T12:43:01.515Z,1.75
2023-03-16T12:45:37.380Z,1.55
2023-03-16T12:48:12.619Z,1.83
2023-03-16T12:50:55.113Z,1.92
2023-03-16T12:53:28.644Z,2.28
2023-03-16T12:55:57.215Z,2.00
2023-03-16T12:58:26.127Z,1.65
2023-03-16T13:00:59.518Z,1.77
2023-03-16T13:03:27.780Z,1.42
2023-03-16T13:05:58.823Z,2.50
2023-03-16T13:08:27.697Z,1.40
2023-03-16T13:11:06.899Z,1.30
2023-03-16T13:13:34.183Z,0.90
2023-03-16T13:16:09.427Z,1.35
2023-03-16T13:21:21.494Z,1.48
2023-03-16T13:23:58.663Z,1.25
2023-03-16T13:26:38.107Z,0.95
2023-03-16T13:29:27.086Z,0.70
2023-03-16T13:31:57.845Z,0.70
2023-03-16T13:34:35.946Z,0.95
2023-03-16T13:37:02.848Z,1.05
2023-03-16T13:39:31.615Z,0.75
2023-03-16T13:42:16.883Z,1.35
2023-03-16T13:44:44.572Z,1.00
2023-03-16T13:47:20.258Z,0.95
2023-03-16T13:49:51.076Z,0.98
2023-03-16T13:52:27.472Z,1.20
2023-03-16T13:54:56.359Z,0.90
2023-03-16T13:57:26.920Z,1.17
2023-03-16T14:00:21.095Z,3.03
2023-03-16T14:02:56.353Z,2.08
2023-03-16T14:08:00.638Z,1.55
2023-03-16T14:10:33.216Z,1.52
2023-03-16T14:13:29.562Z,0.80
2023-03-16T14:16:04.502Z,1.35
2023-03-16T14:18:34.679Z,1.00
2023-03-16T14:21:08.047Z,0.90
2023-03-16T14:23:40.608Z,1.02
2023-03-16T14:26:16.056Z,1.27
2023-03-16T14:31:21.313Z,1.60
2023-03-16T14:33:48.153Z,1.20
2023-03-16T14:36:19.691Z,1.08
2023-03-16T14:38:48.590Z,1.23
2023-03-16T14:41:26.355Z,0.93
2023-03-16T14:43:59.562Z,1.30
2023-03-16T14:46:33.049Z,1.10
2023-03-16T14:49:05.218Z,1.10
2023-03-16T14:51:39.890Z,0.68
2023-03-16T14:54:13.816Z,0.43
2023-03-16T14:56:42.449Z,0.55
2023-03-16T14:59:09.967Z,0.75
2023-03-16T15:01:37.961Z,0.88
2023-03-16T15:04:05.939Z,0.90
2023-03-16T15:06:34.241Z,1.20
2023-03-16T15:09:01.653Z,0.60
2023-03-16T15:11:29.371Z,1.10
2023-03-16T15:14:14.319Z,0.60
2023-03-16T15:16:42.481Z,0.85
2023-03-16T15:19:10.020Z,1.65
2023-03-16T15:21:36.820Z,1.40
2023-03-16T15:24:12.447Z,1.33
2023-03-16T15:26:39.215Z,0.82
2023-03-16T15:29:06.646Z,1.42
2023-03-16T15:31:33.519Z,1.10
2023-03-16T15:34:00.490Z,1.35
2023-03-16T15:36:27.332Z,1.05
2023-03-16T15:38:55.495Z,1.13
2023-03-16T15:41:26.940Z,0.70
2023-03-16T15:44:00.785Z,1.00
2023-03-16T15:46:28.387Z,1.23
2023-03-16T15:48:55.444Z,1.83
2023-03-16T15:51:29.152Z,0.77
2023-03-16T15:54:04.867Z,0.75
2023-03-16T15:56:44.183Z,1.00
2023-03-16T15:59:18.265Z,0.60
2023-03-16T16:01:47.851Z,1.30
2023-03-16T16:04:19.502Z,2.17
2023-03-16T16:06:47.932Z,2.10
2023-03-16T16:09:15.730Z,1.52
2023-03-16T16:11:42.549Z,2.03
2023-03-16T16:14:17.290Z,1.40
2023-03-16T16:16:46.141Z,1.50
2023-03-16T16:19:14.321Z,1.70
2023-03-16T16:21:41.515Z,0.77
2023-03-16T16:24:09.406Z,1.20
2023-03-16T16:26:50.863Z,1.45
2023-03-16T16:29:32.035Z,1.77
2023-03-16T16:31:59.104Z,0.85
2023-03-16T16:34:27.021Z,0.95
2023-03-16T16:36:54.978Z,0.90
2023-03-16T16:39:22.115Z,0.90
2023-03-16T16:41:51.377Z,2.30
2023-03-16T16:44:24.173Z,1.13
2023-03-16T16:46:52.054Z,0.88
2023-03-16T16:49:20.069Z,1.13
2023-03-16T16:51:47.563Z,1.08
2023-03-16T16:54:32.608Z,1.15
2023-03-16T16:57:00.722Z,1.23
2023-03-16T16:59:37.249Z,1.00
2023-03-16T17:02:27.754Z,1.00
2023-03-16T17:04:54.593Z,1.33
2023-03-16T17:07:21.710Z,1.08
2023-03-16T17:09:48.561Z,1.23
2023-03-16T17:12:21.801Z,0.93
2023-03-16T17:14:55.806Z,0.80
2023-03-16T17:17:22.592Z,1.30
2023-03-16T17:19:49.439Z,1.25
2023-03-16T17:22:25.731Z,0.90
2023-03-16T17:24:53.364Z,1.00
2023-03-16T17:27:26.181Z,0.60
2023-03-16T17:29:53.877Z,0.80
2023-03-16T17:32:22.742Z,0.70
2023-03-16T17:34:50.930Z,0.50
2023-03-16T17:37:20.194Z,0.80
2023-03-16T17:39:47.670Z,1.00
2023-03-16T17:42:19.584Z,0.75
2023-03-16T17:44:51.796Z,0.75
2023-03-16T17:47:24.014Z,0.38
2023-03-16T17:49:51.897Z,1.30
2023-03-16T17:52:23.267Z,0.70
2023-03-16T17:54:51.989Z,0.80
2023-03-16T17:57:37.050Z,0.70
2023-03-16T18:00:18.579Z,0.75
2023-03-16T18:02:45.527Z,0.50
2023-03-16T18:08:46.737Z,0.63
2023-03-16T18:11:21.473Z,0.82
2023-03-16T18:13:50.293Z,0.60
2023-03-16T18:16:23.297Z,1.17
2023-03-16T18:18:51.896Z,0.68
2023-03-16T18:21:21.783Z,1.00
2023-03-16T18:23:49.385Z,0.82
2023-03-16T18:26:16.361Z,0.85
2023-03-16T18:28:43.820Z,1.08
2023-03-16T18:31:23.715Z,1.15
2023-03-16T18:34:00.689Z,0.80
2023-03-16T18:36:31.347Z,1.00
2023-03-16T18:39:01.989Z,0.80
2023-03-16T18:41:33.520Z,1.25
2023-03-16T18:44:14.024Z,0.75
2023-03-16T18:46:40.973Z,0.90
2023-03-16T18:49:29.418Z,0.70
2023-03-16T18:51:56.248Z,0.68
2023-03-16T18:54:31.851Z,0.82
2023-03-16T18:56:58.970Z,0.85
2023-03-16T18:59:26.987Z,0.75
2023-03-16T19:01:53.923Z,1.10
2023-03-16T19:04:32.853Z,0.85
2023-03-16T19:06:59.829Z,0.80
2023-03-16T19:09:31.674Z,1.08
2023-03-16T19:11:58.908Z,0.93
2023-03-16T19:14:33.064Z,1.05
2023-03-16T19:17:00.228Z,0.70
2023-03-16T19:19:27.318Z,0.90
2023-03-16T19:22:02.415Z,0.73
2023-03-16T19:24:35.157Z,0.77
2023-03-16T19:27:02.122Z,0.82
2023-03-16T19:29:34.438Z,0.82
2023-03-16T19:32:01.812Z,1.10
2023-03-16T19:34:29.364Z,0.80
2023-03-16T19:36:56.294Z,0.95
2023-03-16T19:39:23.078Z,0.80
2023-03-16T19:41:56.459Z,0.65
2023-03-16T19:44:25.719Z,1.00
2023-03-16T19:46:52.937Z,0.90
2023-03-16T19:49:22.696Z,1.15
2023-03-16T19:51:51.520Z,0.82
2023-03-16T19:54:22.675Z,1.25
2023-03-16T19:56:50.522Z,1.20
2023-03-16T19:59:18.052Z,0.82
2023-03-16T20:01:45.109Z,0.77
2023-03-16T20:04:20.236Z,0.90
2023-03-16T20:06:49.843Z,1.30
2023-03-16T20:09:17.575Z,0.63
2023-03-16T20:11:44.905Z,0.90
2023-03-16T20:14:26.966Z,0.50
2023-03-16T20:16:53.867Z,1.00
2023-03-16T20:19:22.197Z,1.10
2023-03-16T20:21:49.283Z,0.70
2023-03-16T20:24:19.115Z,0.80
2023-03-16T20:26:48.406Z,0.85
2023-03-16T20:29:34.200Z,1.05
2023-03-16T20:32:02.463Z,0.82
2023-03-16T20:34:31.402Z,1.02
2023-03-16T20:36:58.412Z,0.90
2023-03-16T20:39:25.553Z,1.13
2023-03-16T20:41:52.563Z,0.82
2023-03-16T20:44:21.314Z,0.77
2023-03-16T20:46:48.108Z,0.88
2023-03-16T20:49:25.333Z,0.95
2023-03-16T20:51:53.213Z,0.60
2023-03-16T20:54:20.749Z,0.90
2023-03-16T20:56:48.121Z,0.68
2023-03-16T20:59:21.752Z,0.70
2023-03-16T21:01:49.734Z,0.75
2023-03-16T21:04:22.405Z,0.93
2023-03-16T21:06:50.890Z,0.82
2023-03-16T21:09:19.187Z,1.00
2023-03-16T21:11:47.299Z,0.90
2023-03-16T21:14:20.841Z,1.15
2023-03-16T21:16:48.210Z,0.80
2023-03-16T21:19:21.012Z,0.85
2023-03-16T21:21:47.863Z,1.00
2023-03-16T21:24:14.791Z,0.88
2023-03-16T21:26:43.582Z,0.80
2023-03-16T21:29:18.090Z,0.60
2023-03-16T21:31:44.908Z,0.70
2023-03-16T21:34:28.425Z,0.73
2023-03-16T21:36:55.166Z,0.80
2023-03-16T21:39:24.969Z,0.70
2023-03-16T21:41:51.970Z,1.10
2023-03-16T21:44:19.543Z,0.70
2023-03-16T21:46:47.345Z,0.90
2023-03-16T21:49:15.656Z,0.55
2023-03-16T21:51:43.115Z,0.65
2023-03-16T21:54:14.437Z,1.05
2023-03-16T21:56:42.283Z,0.98
2023-03-16T21:59:09.901Z,0.73
2023-03-16T22:01:50.589Z,0.80
2023-03-16T22:04:25.400Z,1.40
2023-03-16T22:06:52.418Z,1.35
2023-03-16T22:09:22.513Z,0.95
2023-03-16T22:11:49.883Z,1.20
2023-03-16T22:14:16.722Z,1.30
2023-03-16T22:16:43.751Z,0.90
2023-03-16T22:19:14.472Z,1.10
2023-03-16T22:21:43.713Z,1.13
2023-03-16T22:24:23.477Z,0.98
2023-03-16T22:26:50.760Z,1.02
2023-03-16T22:29:28.216Z,0.85
2023-03-16T22:31:59.424Z,1.08
2023-03-16T22:34:51.728Z,0.82
2023-03-16T22:37:22.905Z,1.27
2023-03-16T22:39:50.330Z,1.20
2023-03-16T22:42:28.384Z,0.98
2023-03-16T22:44:56.474Z,1.23
2023-03-16T22:47:32.200Z,1.27
2023-03-16T22:49:59.229Z,1.30
2023-03-16T22:52:30.210Z,1.30
2023-03-16T22:54:59.747Z,1.10
2023-03-16T22:57:26.611Z,1.30
2023-03-16T22:59:53.414Z,1.73
2023-03-16T23:02:24.263Z,1.25
2023-03-16T23:04:51.168Z,2.08
2023-03-16T23:07:18.191Z,1.65
2023-03-16T23:09:45.638Z,1.67
2023-03-16T23:12:19.719Z,1.35
2023-03-16T23:14:46.689Z,1.40
2023-03-16T23:17:24.887Z,1.67
2023-03-16T23:19:51.952Z,1.75
2023-03-16T23:22:18.716Z,1.20
2023-03-16T23:24:45.778Z,1.77
2023-03-16T23:27:18.561Z,2.17
2023-03-16T23:29:46.011Z,1.52
2023-03-16T23:32:14.708Z,1.30
2023-03-16T23:34:41.471Z,1.70
2023-03-16T23:37:08.557Z,2.00
2023-03-16T23:39:35.328Z,2.10
2023-03-16T23:42:02.312Z,1.40
2023-03-16T23:44:30.326Z,1.95
2023-03-16T23:46:58.574Z,2.67
2023-03-16T23:49:32.547Z,2.17
2023-03-16T23:52:01.600Z,1.77
2023-03-16T23:54:30.937Z,1.58
2023-03-16T23:56:57.926Z,1.85
2023-03-16T23:59:25.706Z,1.88
